createdAt,value
2023-02-11T00:02:05.766Z,25.45
2023-02-11T00:05:10.588Z,28.52
2023-02-11T00:08:17.099Z,27.77
2023-02-11T00:11:24.200Z,26.98
2023-02-11T00:14:27.597Z,25.33
2023-02-11T00:17:32.582Z,25.77
2023-02-11T00:20:35.829Z,23.98
2023-02-11T00:23:40.434Z,25.33
2023-02-11T00:26:43.604Z,26.37
2023-02-11T00:29:47.223Z,26.35
2023-02-11T00:32:50.372Z,24.83
2023-02-11T00:35:53.775Z,24.90
2023-02-11T00:38:58.074Z,23.00
2023-02-11T00:42:01.402Z,23.75
2023-02-11T00:45:04.818Z,21.87
2023-02-11T00:48:08.544Z,22.77
2023-02-11T00:51:12.522Z,22.62
2023-02-11T00:54:15.950Z,22.52
2023-02-11T00:57:19.466Z,24.70
2023-02-11T01:00:22.971Z,24.73
2023-02-11T01:03:26.858Z,26.33
2023-02-11T01:06:32.080Z,28.38
2023-02-11T01:09:38.604Z,25.77
2023-02-11T01:12:43.700Z,25.75
2023-02-11T01:15:46.906Z,27.30
2023-02-11T01:18:50.636Z,22.47
2023-02-11T01:21:53.828Z,26.95
2023-02-11T01:24:58.149Z,25.50
2023-02-11T01:28:01.524Z,24.07
2023-02-11T01:31:07.548Z,27.10
2023-02-11T01:34:10.814Z,24.17
2023-02-11T01:37:14.286Z,25.80
2023-02-11T01:40:18.164Z,26.90
2023-02-11T01:43:22.048Z,24.50
2023-02-11T01:46:36.047Z,26.60
2023-02-11T01:49:47.664Z,27.53
2023-02-11T01:52:51.876Z,25.92
2023-02-11T01:56:15.326Z,23.67
2023-02-11T01:59:26.116Z,27.07
2023-02-11T02:02:37.025Z,27.37
2023-02-11T02:05:44.575Z,26.02
2023-02-11T02:08:55.674Z,28.02
2023-02-11T02:11:59.167Z,26.92
2023-02-11T02:15:27.037Z,28.45
2023-02-11T02:19:01.543Z,24.23
2023-02-11T02:22:40.409Z,22.93
2023-02-11T02:26:04.598Z,24.90
2023-02-11T02:29:26.686Z,24.58
2023-02-11T02:32:41.986Z,27.10
2023-02-11T02:36:05.807Z,24.67
2023-02-11T02:39:22.731Z,23.12
2023-02-11T02:42:27.092Z,25.58
2023-02-11T02:45:31.805Z,26.12
2023-02-11T02:48:35.892Z,24.30
2023-02-11T02:51:45.409Z,25.50
2023-02-11T02:55:04.259Z,25.00
2023-02-11T02:58:25.833Z,23.87
2023-02-11T03:01:50.224Z,26.95
2023-02-11T03:05:18.211Z,24.43
2023-02-11T03:08:29.211Z,25.08
2023-02-11T03:11:34.860Z,27.17
2023-02-11T03:14:40.694Z,22.60
2023-02-11T03:17:47.462Z,24.70
2023-02-11T03:20:53.477Z,25.37
2023-02-11T03:24:00.699Z,22.15
2023-02-11T03:27:20.572Z,20.80
2023-02-11T03:30:36.087Z,22.08
2023-02-11T03:34:02.429Z,22.58
2023-02-11T03:37:19.491Z,20.73
2023-02-11T03:40:26.830Z,21.58
2023-02-11T03:43:35.817Z,23.10
2023-02-11T03:46:43.040Z,22.90
2023-02-11T03:49:49.862Z,20.48
2023-02-11T03:52:55.700Z,22.30
2023-02-11T03:56:03.369Z,18.45
2023-02-11T03:59:06.540Z,21.43
2023-02-11T04:02:10.075Z,23.15
2023-02-11T04:05:16.154Z,19.35
2023-02-11T04:08:19.411Z,20.37
2023-02-11T04:11:23.139Z,20.27
2023-02-11T04:14:26.275Z,20.25
2023-02-11T04:17:29.748Z,20.48
2023-02-11T04:20:33.148Z,19.27
2023-02-11T04:23:36.813Z,18.85
2023-02-11T04:26:40.239Z,19.52
2023-02-11T04:29:43.682Z,21.17
2023-02-11T04:32:47.265Z,19.95
2023-02-11T04:35:51.309Z,20.73
2023-02-11T04:38:54.484Z,20.00
2023-02-11T04:41:58.008Z,16.48
2023-02-11T04:45:01.917Z,18.60
2023-02-11T04:48:05.766Z,19.45
2023-02-11T04:51:09.011Z,21.10
2023-02-11T04:54:12.828Z,22.42
2023-02-11T04:57:16.089Z,21.17
2023-02-11T05:00:19.912Z,18.80
2023-02-11T05:03:23.096Z,20.40
2023-02-11T05:06:26.864Z,19.45
2023-02-11T05:09:30.431Z,21.70
2023-02-11T05:12:34.041Z,19.40
2023-02-11T05:15:37.256Z,18.80
2023-02-11T05:18:43.272Z,18.92
2023-02-11T05:22:00.445Z,21.15
2023-02-11T05:25:05.201Z,19.75
2023-02-11T05:28:08.383Z,24.35
2023-02-11T05:31:14.699Z,25.77
2023-02-11T05:34:18.381Z,22.02
2023-02-11T05:37:21.834Z,24.42
2023-02-11T05:40:25.026Z,21.87
2023-02-11T05:43:28.479Z,25.35
2023-02-11T05:46:31.673Z,24.15
2023-02-11T05:49:36.718Z,20.88
2023-02-11T05:52:39.963Z,24.77
2023-02-11T05:55:44.428Z,22.30
2023-02-11T05:58:47.472Z,23.08
2023-02-11T06:01:51.600Z,21.10
2023-02-11T06:04:55.094Z,23.65
2023-02-11T06:07:58.683Z,21.92
2023-02-11T06:11:02.089Z,19.90
2023-02-11T06:14:05.473Z,24.17
2023-02-11T06:17:09.205Z,22.05
2023-02-11T06:20:12.614Z,24.27
2023-02-11T06:23:16.107Z,22.65
2023-02-11T06:26:21.888Z,24.73
2023-02-11T06:29:25.425Z,23.38
2023-02-11T06:32:43.483Z,26.73
2023-02-11T06:35:47.649Z,23.80
2023-02-11T06:38:51.465Z,24.27
2023-02-11T06:41:55.247Z,25.63
2023-02-11T06:44:58.558Z,27.65
2023-02-11T06:48:02.139Z,23.40
2023-02-11T06:51:10.284Z,37.35
2023-02-11T06:54:13.694Z,30.25
2023-02-11T06:57:16.939Z,50.08
2023-02-11T07:00:20.841Z,41.28
2023-02-11T07:03:23.963Z,37.57
2023-02-11T07:06:28.274Z,35.25
2023-02-11T07:09:32.652Z,34.88
2023-02-11T07:12:36.108Z,33.83
2023-02-11T07:15:39.734Z,38.05
2023-02-11T07:18:43.882Z,33.45
2023-02-11T07:21:48.778Z,32.88
2023-02-11T07:24:52.217Z,38.17
2023-02-11T07:27:55.450Z,38.35
2023-02-11T07:30:59.013Z,37.22
2023-02-11T07:34:03.011Z,34.23
2023-02-11T07:37:06.525Z,38.20
2023-02-11T07:40:10.548Z,37.28
2023-02-11T07:43:14.075Z,33.80
2023-02-11T07:46:25.493Z,36.00
2023-02-11T07:49:29.771Z,36.40
2023-02-11T07:52:33.058Z,41.78
2023-02-11T07:55:36.411Z,39.58
2023-02-11T07:58:42.283Z,40.28
2023-02-11T08:01:45.875Z,42.15
2023-02-11T08:04:49.437Z,42.30
2023-02-11T08:07:54.037Z,43.25
2023-02-11T08:10:57.883Z,42.20
2023-02-11T08:14:01.429Z,39.67
2023-02-11T08:17:05.482Z,42.83
2023-02-11T08:20:08.963Z,47.10
2023-02-11T08:23:12.538Z,42.78
2023-02-11T08:26:21.742Z,49.35
2023-02-11T08:29:27.441Z,45.05
2023-02-11T08:32:30.635Z,46.90
2023-02-11T08:35:37.101Z,45.27
2023-02-11T08:38:41.928Z,44.95
2023-02-11T08:41:49.903Z,36.97
2023-02-11T08:44:52.946Z,37.33
2023-02-11T08:47:57.104Z,35.25
2023-02-11T08:51:00.604Z,36.38
2023-02-11T08:54:04.556Z,35.17
2023-02-11T08:57:07.929Z,35.60
2023-02-11T09:00:11.985Z,36.30
2023-02-11T09:03:15.716Z,36.50
2023-02-11T09:06:20.524Z,37.67
2023-02-11T09:09:24.441Z,35.15
2023-02-11T09:12:28.158Z,35.50
2023-02-11T09:15:31.031Z,35.93
2023-02-11T09:18:34.611Z,37.63
2023-02-11T09:21:37.763Z,35.97
2023-02-11T09:24:41.548Z,37.72
2023-02-11T09:27:44.760Z,37.30
2023-02-11T09:30:49.504Z,37.28
2023-02-11T09:33:55.318Z,36.78
2023-02-11T09:36:58.669Z,35.53
2023-02-11T09:40:02.249Z,32.25
2023-02-11T09:43:19.576Z,32.55
2023-02-11T09:46:24.804Z,33.40
2023-02-11T09:49:50.836Z,33.25
2023-02-11T09:53:04.865Z,30.08
2023-02-11T09:56:14.296Z,30.02
2023-02-11T09:59:17.808Z,30.25
2023-02-11T10:02:32.523Z,40.08
2023-02-11T10:05:42.011Z,34.80
2023-02-11T10:09:22.773Z,32.90
2023-02-11T10:12:35.394Z,32.33
2023-02-11T10:15:47.744Z,34.38
2023-02-11T10:19:17.198Z,31.40
2023-02-11T10:22:28.641Z,32.35
2023-02-11T10:25:39.770Z,28.85
2023-02-11T10:28:46.690Z,25.85
2023-02-11T10:31:51.761Z,26.95
2023-02-11T10:35:02.118Z,26.75
2023-02-11T10:38:05.764Z,30.08
2023-02-11T10:41:22.815Z,27.20
2023-02-11T10:44:34.130Z,28.50
2023-02-11T10:47:40.583Z,27.70
2023-02-11T10:50:45.028Z,28.63
2023-02-11T10:53:51.222Z,26.77
2023-02-11T10:57:00.451Z,28.25
2023-02-11T11:00:24.503Z,27.50
2023-02-11T11:03:34.558Z,26.50
2023-02-11T11:06:37.952Z,22.65
2023-02-11T11:09:53.158Z,23.33
2023-02-11T11:12:56.481Z,26.10
2023-02-11T11:16:28.481Z,23.25
2023-02-11T11:19:33.278Z,23.70
2023-02-11T11:22:36.907Z,22.05
2023-02-11T11:25:43.906Z,20.35
2023-02-11T11:28:47.337Z,22.77
2023-02-11T11:31:57.078Z,24.87
2023-02-11T11:35:20.606Z,20.20
2023-02-11T11:38:24.693Z,20.07
2023-02-11T11:41:33.763Z,18.65
2023-02-11T11:44:39.977Z,20.23
2023-02-11T11:47:54.653Z,20.80
2023-02-11T11:51:01.495Z,19.48
2023-02-11T11:54:12.487Z,21.42
2023-02-11T11:57:21.310Z,17.95
2023-02-11T12:00:44.672Z,18.17
2023-02-11T12:04:14.525Z,16.90
2023-02-11T12:07:35.166Z,19.33
2023-02-11T12:10:41.801Z,16.50
2023-02-11T12:14:01.108Z,16.90
2023-02-11T12:17:13.547Z,15.73
2023-02-11T12:20:32.252Z,15.00
2023-02-11T12:23:44.752Z,16.37
2023-02-11T12:27:05.468Z,15.90
2023-02-11T12:30:27.388Z,15.50
2023-02-11T12:34:02.199Z,16.33
2023-02-11T12:37:18.345Z,15.73
2023-02-11T12:40:40.996Z,16.58
2023-02-11T12:43:46.101Z,15.77
2023-02-11T12:46:58.149Z,15.50
2023-02-11T12:50:23.087Z,14.70
2023-02-11T12:53:39.636Z,14.48
2023-02-11T12:57:06.963Z,14.07
2023-02-11T13:00:25.219Z,12.20
2023-02-11T13:03:35.340Z,13.43
2023-02-11T13:06:46.969Z,13.13
2023-02-11T13:10:12.331Z,12.98
2023-02-11T13:13:23.855Z,12.70
2023-02-11T13:16:40.755Z,13.85
2023-02-11T13:19:53.425Z,12.57
2023-02-11T13:23:08.641Z,16.98
2023-02-11T13:26:28.072Z,11.43
2023-02-11T13:30:09.624Z,11.55
2023-02-11T13:33:16.653Z,11.32
2023-02-11T13:36:28.433Z,9.50
2023-02-11T13:39:32.532Z,10.47
2023-02-11T13:42:52.530Z,11.02
2023-02-11T13:46:03.871Z,13.07
2023-02-11T13:49:23.457Z,10.95
2023-02-11T13:52:37.937Z,11.33
2023-02-11T13:55:46.457Z,10.63
2023-02-11T13:58:52.133Z,11.10
2023-02-11T14:02:17.810Z,10.18
2023-02-11T14:05:47.424Z,11.68
2023-02-11T14:09:10.734Z,10.00
2023-02-11T14:12:41.667Z,9.38
2023-02-11T14:15:46.779Z,10.23
2023-02-11T14:18:57.154Z,6.85
2023-02-11T14:22:06.816Z,9.87
2023-02-11T14:25:25.987Z,11.43
2023-02-11T14:28:34.571Z,9.40
2023-02-11T14:32:06.043Z,10.10
2023-02-11T14:35:15.706Z,9.25
2023-02-11T14:38:55.588Z,10.20
2023-02-11T14:42:03.988Z,9.23
2023-02-11T14:45:11.414Z,9.70
2023-02-11T14:48:18.314Z,9.75
2023-02-11T14:51:28.870Z,9.88
2023-02-11T14:54:34.521Z,10.68
2023-02-11T14:57:40.081Z,10.10
2023-02-11T15:01:15.013Z,10.65
2023-02-11T15:04:32.347Z,9.77
2023-02-11T15:07:36.616Z,10.68
2023-02-11T15:10:45.882Z,9.63
2023-02-11T15:13:50.758Z,11.18
2023-02-11T15:17:06.844Z,10.88
2023-02-11T15:20:22.424Z,12.85
2023-02-11T15:23:31.448Z,11.53
2023-02-11T15:26:38.754Z,11.73
2023-02-11T15:29:46.920Z,13.35
2023-02-11T15:33:03.552Z,12.68
2023-02-11T15:36:13.293Z,13.88
2023-02-11T15:39:34.487Z,12.60
2023-02-11T15:42:52.392Z,11.90
2023-02-11T15:46:03.331Z,13.20
2023-02-11T15:49:19.690Z,12.88
2023-02-11T15:52:27.745Z,12.75
2023-02-11T15:55:33.863Z,12.10
2023-02-11T15:58:41.457Z,11.93
2023-02-11T16:01:47.636Z,11.95
2023-02-11T16:04:56.279Z,13.82
2023-02-11T16:08:02.205Z,13.18
2023-02-11T16:11:11.049Z,11.98
2023-02-11T16:14:42.739Z,14.00
2023-02-11T16:17:47.731Z,13.18
2023-02-11T16:20:54.703Z,13.90
2023-02-11T16:24:02.327Z,14.70
2023-02-11T16:27:25.019Z,14.35
2023-02-11T16:30:37.655Z,15.60
2023-02-11T16:33:43.272Z,17.60
2023-02-11T16:36:49.623Z,14.50
2023-02-11T16:40:00.135Z,16.37
2023-02-11T16:43:05.586Z,14.00
2023-02-11T16:46:18.740Z,15.55
2023-02-11T16:49:30.212Z,15.18
2023-02-11T16:52:37.433Z,14.53
2023-02-11T16:55:44.453Z,16.42
2023-02-11T16:58:51.498Z,16.20
2023-02-11T17:01:58.260Z,16.27
2023-02-11T17:05:07.134Z,15.63
2023-02-11T17:08:12.739Z,13.85
2023-02-11T17:11:18.149Z,14.48
2023-02-11T17:14:24.218Z,12.83
2023-02-11T17:17:31.563Z,14.57
2023-02-11T17:20:36.978Z,13.80
2023-02-11T17:23:41.888Z,15.20
2023-02-11T17:26:46.779Z,9.75
2023-02-11T17:29:53.894Z,14.68
2023-02-11T17:32:59.592Z,15.35
2023-02-11T17:36:09.670Z,16.02
2023-02-11T17:39:15.421Z,14.65
2023-02-11T17:42:20.430Z,14.32
2023-02-11T17:45:25.116Z,15.27
2023-02-11T17:48:29.045Z,13.90
2023-02-11T17:51:39.779Z,15.57
2023-02-11T17:54:44.719Z,13.80
2023-02-11T17:57:49.624Z,14.00
2023-02-11T18:00:59.714Z,15.45
2023-02-11T18:04:05.671Z,14.50
2023-02-11T18:07:12.997Z,13.73
2023-02-11T18:10:20.155Z,14.87
2023-02-11T18:13:25.685Z,14.00
2023-02-11T18:16:31.128Z,13.70
2023-02-11T18:19:36.810Z,14.77
2023-02-11T18:22:45.150Z,15.75
2023-02-11T18:25:50.299Z,14.10
2023-02-11T18:28:58.427Z,13.85
2023-02-11T18:32:04.572Z,14.75
2023-02-11T18:35:16.161Z,14.60
2023-02-11T18:38:23.739Z,15.13
2023-02-11T18:41:31.394Z,14.23
2023-02-11T18:44:38.246Z,14.80
2023-02-11T18:47:44.605Z,15.43
2023-02-11T18:50:52.239Z,15.13
2023-02-11T18:53:58.013Z,14.60
2023-02-11T18:57:02.850Z,14.97
2023-02-11T19:00:12.669Z,15.02
2023-02-11T19:03:18.380Z,15.23
2023-02-11T19:06:27.957Z,15.35
2023-02-11T19:09:33.590Z,16.67
2023-02-11T19:12:39.453Z,17.10
2023-02-11T19:15:46.560Z,18.27
2023-02-11T19:18:51.835Z,20.10
2023-02-11T19:21:58.660Z,19.90
2023-02-11T19:25:03.962Z,17.98
2023-02-11T19:28:09.644Z,15.25
2023-02-11T19:31:15.220Z,17.77
2023-02-11T19:34:21.737Z,18.23
2023-02-11T19:37:27.393Z,18.62
2023-02-11T19:40:33.446Z,17.30
2023-02-11T19:43:44.226Z,17.42
2023-02-11T19:46:52.973Z,15.40
2023-02-11T19:49:58.673Z,13.57
2023-02-11T19:53:03.655Z,15.18
2023-02-11T19:56:11.935Z,14.52
2023-02-11T19:59:17.851Z,14.43
2023-02-11T20:02:23.025Z,14.43
2023-02-11T20:05:37.810Z,15.10
2023-02-11T20:08:45.131Z,14.48
2023-02-11T20:11:52.507Z,14.60
2023-02-11T20:15:00.206Z,15.40
2023-02-11T20:18:05.467Z,14.93
2023-02-11T20:21:14.081Z,13.87
2023-02-11T20:24:21.794Z,13.62
2023-02-11T20:27:29.173Z,13.68
2023-02-11T20:30:34.002Z,14.00
2023-02-11T20:33:41.966Z,13.35
2023-02-11T20:36:54.914Z,13.07
2023-02-11T20:40:01.704Z,14.15
2023-02-11T20:43:07.479Z,14.27
2023-02-11T20:46:15.229Z,13.85
2023-02-11T20:49:25.453Z,14.23
2023-02-11T20:52:30.305Z,14.03
2023-02-11T20:55:38.947Z,14.65
2023-02-11T20:58:44.216Z,13.70
2023-02-11T21:01:53.934Z,15.10
2023-02-11T21:04:58.935Z,13.95
2023-02-11T21:08:05.514Z,13.70
2023-02-11T21:11:11.049Z,14.45
2023-02-11T21:14:17.088Z,13.73
2023-02-11T21:17:22.567Z,13.40
2023-02-11T21:20:29.094Z,13.00
2023-02-11T21:23:36.524Z,13.40
2023-02-11T21:26:42.746Z,14.27
2023-02-11T21:29:54.065Z,13.62
2023-02-11T21:33:00.270Z,14.35
2023-02-11T21:36:08.345Z,13.43
2023-02-11T21:39:14.467Z,12.88
2023-02-11T21:42:20.707Z,13.98
2023-02-11T21:45:28.289Z,12.27
2023-02-11T21:48:31.947Z,13.00
2023-02-11T21:51:38.125Z,14.10
2023-02-11T21:54:42.795Z,14.23
2023-02-11T21:57:49.811Z,13.10
2023-02-11T22:00:54.439Z,13.88
2023-02-11T22:03:59.306Z,12.77
2023-02-11T22:07:03.482Z,11.53
2023-02-11T22:10:08.471Z,13.23
2023-02-11T22:13:12.410Z,14.23
2023-02-11T22:16:21.795Z,13.83
2023-02-11T22:19:25.590Z,14.35
2023-02-11T22:22:29.500Z,11.90
2023-02-11T22:25:32.653Z,13.85
2023-02-11T22:28:39.332Z,14.05
2023-02-11T22:31:43.029Z,13.60
2023-02-11T22:34:46.644Z,12.60
2023-02-11T22:37:49.777Z,12.80
2023-02-11T22:40:53.413Z,13.75
2023-02-11T22:43:56.914Z,12.82
2023-02-11T22:47:00.473Z,14.53
2023-02-11T22:50:04.037Z,12.27
2023-02-11T22:53:08.810Z,13.88
2023-02-11T22:56:15.796Z,13.25
2023-02-11T22:59:21.476Z,14.73
2023-02-11T23:02:26.026Z,13.23
2023-02-11T23:05:29.592Z,12.68
2023-02-11T23:08:33.747Z,12.90
2023-02-11T23:11:39.904Z,14.60
2023-02-11T23:14:44.327Z,12.07
2023-02-11T23:17:47.764Z,12.50
2023-02-11T23:20:50.994Z,13.90
2023-02-11T23:23:59.657Z,12.60
2023-02-11T23:27:03.526Z,12.93
2023-02-11T23:30:08.393Z,13.27
2023-02-11T23:33:11.635Z,14.05
2023-02-11T23:36:16.037Z,14.68
2023-02-11T23:39:19.757Z,14.20
2023-02-11T23:42:23.581Z,14.15
2023-02-11T23:45:27.347Z,13.35
2023-02-11T23:48:31.254Z,13.50
2023-02-11T23:51:34.454Z,13.05
2023-02-11T23:54:37.910Z,12.07
2023-02-11T23:57:41.137Z,12.18
